Airport View

Enter AWOS ICAO identifier for current METAR.

ex. KFNL

KOZR 080514Z AUTO 23005KT 10SM OVC006 24/24 A2998 RMK AO2 SLP152

8 Jul 2020 05:22

Other Area AWOS: KHEY - KLOR - KEDN - KDHN

TAF AMD KOZR 080240Z 0802/0906 VRB06KT 9999 BKN005 QNH2995INS TEMPO 0802/0809 SCT006 BECMG 0808/0809 VRB06KT 8000 BR BKN008 QNH2990INS BECMG 0817/0818 34008KT 8000 -SHRA BKN018 QNH2989INS TEMPO 0818/0823 VRB15G20KT 6000 -TSRA BKN018CB BECMG 0823/0824 VRB06KT 9999 NSW SCT020 QNH2990INS TX30/0821Z TN23/0811Z